sensor_id;sensor_type;location;lat;lon;timestamp;pressure;altitude;pressure_sealevel;temperature;humidity
42691;BME280;28306;55.744;37.578;2023-03-04T00:01:23;98125.06;;;15.54;25.19
42691;BME280;28306;55.744;37.578;2023-03-04T00:03:49;98128.78;;;15.53;25.20
42691;BME280;28306;55.744;37.578;2023-03-04T00:06:14;98124.75;;;15.39;25.57
42691;BME280;28306;55.744;37.578;2023-03-04T00:08:40;98119.03;;;15.47;25.23
42691;BME280;28306;55.744;37.578;2023-03-04T00:11:05;98117.00;;;15.54;25.44
42691;BME280;28306;55.744;37.578;2023-03-04T00:13:30;98112.22;;;15.56;25.35
42691;BME280;28306;55.744;37.578;2023-03-04T00:15:56;98103.19;;;15.45;25.71
42691;BME280;28306;55.744;37.578;2023-03-04T00:18:21;98100.75;;;15.44;25.71
42691;BME280;28306;55.744;37.578;2023-03-04T00:20:47;98101.31;;;15.46;25.29
42691;BME280;28306;55.744;37.578;2023-03-04T00:23:14;98096.69;;;15.41;25.78
42691;BME280;28306;55.744;37.578;2023-03-04T00:25:39;98098.56;;;15.41;25.40
42691;BME280;28306;55.744;37.578;2023-03-04T00:28:04;98091.88;;;15.43;25.60
42691;BME280;28306;55.744;37.578;2023-03-04T00:30:30;98093.44;;;15.39;25.72
42691;BME280;28306;55.744;37.578;2023-03-04T00:32:56;98079.22;;;15.39;25.37
42691;BME280;28306;55.744;37.578;2023-03-04T00:35:22;98081.13;;;15.26;25.94
42691;BME280;28306;55.744;37.578;2023-03-04T00:37:47;98082.56;;;15.17;26.20
42691;BME280;28306;55.744;37.578;2023-03-04T00:40:14;98078.03;;;15.18;26.35
42691;BME280;28306;55.744;37.578;2023-03-04T00:42:40;98079.78;;;15.12;26.03
42691;BME280;28306;55.744;37.578;2023-03-04T00:45:05;98074.91;;;15.09;26.41
42691;BME280;28306;55.744;37.578;2023-03-04T00:47:31;98069.91;;;15.12;26.17
42691;BME280;28306;55.744;37.578;2023-03-04T00:49:57;98067.56;;;15.16;26.32
42691;BME280;28306;55.744;37.578;2023-03-04T00:52:22;98061.25;;;15.22;25.91
42691;BME280;28306;55.744;37.578;2023-03-04T00:54:47;98069.28;;;15.22;25.85
42691;BME280;28306;55.744;37.578;2023-03-04T00:57:13;98084.63;;;15.27;25.54
42691;BME280;28306;55.744;37.578;2023-03-04T00:59:38;98076.59;;;15.27;25.58
42691;BME280;28306;55.744;37.578;2023-03-04T01:02:05;98081.97;;;15.27;25.78
42691;BME280;28306;55.744;37.578;2023-03-04T01:04:30;98072.13;;;15.32;25.59
42691;BME280;28306;55.744;37.578;2023-03-04T01:06:57;98074.00;;;15.32;25.88
42691;BME280;28306;55.744;37.578;2023-03-04T01:09:23;98072.25;;;15.38;25.60
42691;BME280;28306;55.744;37.578;2023-03-04T01:11:51;98070.13;;;15.40;25.70
42691;BME280;28306;55.744;37.578;2023-03-04T01:14:16;98069.16;;;15.46;25.57
42691;BME280;28306;55.744;37.578;2023-03-04T01:16:42;98067.97;;;15.54;25.74
42691;BME280;28306;55.744;37.578;2023-03-04T01:19:07;98065.28;;;15.54;25.49
42691;BME280;28306;55.744;37.578;2023-03-04T01:21:33;98067.38;;;15.52;25.46
42691;BME280;28306;55.744;37.578;2023-03-04T01:23:58;98063.16;;;15.56;25.44
42691;BME280;28306;55.744;37.578;2023-03-04T01:26:23;98065.59;;;15.57;25.35
42691;BME280;28306;55.744;37.578;2023-03-04T01:28:49;98056.03;;;15.61;25.13
42691;BME280;28306;55.744;37.578;2023-03-04T01:31:14;98058.53;;;15.68;25.07
42691;BME280;28306;55.744;37.578;2023-03-04T01:33:40;98057.50;;;15.69;25.24
42691;BME280;28306;55.744;37.578;2023-03-04T01:36:05;98053.09;;;15.63;25.50
42691;BME280;28306;55.744;37.578;2023-03-04T01:38:31;98050.19;;;15.64;25.27
42691;BME280;28306;55.744;37.578;2023-03-04T01:40:57;98043.19;;;15.63;25.25
42691;BME280;28306;55.744;37.578;2023-03-04T01:43:26;98042.38;;;15.63;25.25
42691;BME280;28306;55.744;37.578;2023-03-04T01:45:53;98047.56;;;15.53;25.21
42691;BME280;28306;55.744;37.578;2023-03-04T01:48:21;98041.63;;;15.50;25.07
42691;BME280;28306;55.744;37.578;2023-03-04T01:50:48;98041.31;;;15.47;25.51
42691;BME280;28306;55.744;37.578;2023-03-04T01:53:18;98036.44;;;15.44;25.54
42691;BME280;28306;55.744;37.578;2023-03-04T01:55:45;98035.22;;;15.52;25.07
42691;BME280;28306;55.744;37.578;2023-03-04T01:58:11;98038.06;;;15.45;25.69
42691;BME280;28306;55.744;37.578;2023-03-04T02:00:38;98028.06;;;15.40;25.75
42691;BME280;28306;55.744;37.578;2023-03-04T02:03:06;98028.97;;;15.46;25.93
42691;BME280;28306;55.744;37.578;2023-03-04T02:05:33;98022.22;;;15.43;25.76
42691;BME280;28306;55.744;37.578;2023-03-04T02:07:59;98012.47;;;15.37;25.75
42691;BME280;28306;55.744;37.578;2023-03-04T02:10:26;98014.75;;;15.28;25.67
42691;BME280;28306;55.744;37.578;2023-03-04T02:12:52;98011.38;;;15.21;26.18
42691;BME280;28306;55.744;37.578;2023-03-04T02:15:18;98004.16;;;15.22;25.91
42691;BME280;28306;55.744;37.578;2023-03-04T02:17:43;97999.19;;;15.13;26.00
42691;BME280;28306;55.744;37.578;2023-03-04T02:22:48;97991.31;;;15.07;26.34
42691;BME280;28306;55.744;37.578;2023-03-04T02:25:18;97992.63;;;15.21;25.90
42691;BME280;28306;55.744;37.578;2023-03-04T02:27:46;97994.34;;;15.27;26.03
42691;BME280;28306;55.744;37.578;2023-03-04T02:30:12;97988.50;;;15.30;25.89
42691;BME280;28306;55.744;37.578;2023-03-04T02:32:38;97978.19;;;15.22;25.94
42691;BME280;28306;55.744;37.578;2023-03-04T02:35:04;97978.69;;;15.19;25.86
42691;BME280;28306;55.744;37.578;2023-03-04T02:37:29;97980.59;;;15.07;26.23
42691;BME280;28306;55.744;37.578;2023-03-04T02:39:55;97972.97;;;14.99;26.05
42691;BME280;28306;55.744;37.578;2023-03-04T02:42:20;97961.91;;;14.95;26.38
42691;BME280;28306;55.744;37.578;2023-03-04T02:44:46;97952.75;;;14.91;26.16
42691;BME280;28306;55.744;37.578;2023-03-04T02:47:15;97960.91;;;14.84;26.21
42691;BME280;28306;55.744;37.578;2023-03-04T02:49:45;97957.50;;;14.89;26.53
42691;BME280;28306;55.744;37.578;2023-03-04T02:52:18;97954.75;;;14.84;26.69
42691;BME280;28306;55.744;37.578;2023-03-04T02:54:45;97946.94;;;14.82;26.40
42691;BME280;28306;55.744;37.578;2023-03-04T02:57:10;97955.06;;;14.87;26.32
42691;BME280;28306;55.744;37.578;2023-03-04T02:59:39;97948.09;;;14.86;26.47
42691;BME280;28306;55.744;37.578;2023-03-04T03:02:06;97944.19;;;14.77;26.60
42691;BME280;28306;55.744;37.578;2023-03-04T03:04:33;97936.44;;;14.64;26.80
42691;BME280;28306;55.744;37.578;2023-03-04T03:07:00;97941.47;;;14.60;26.66
42691;BME280;28306;55.744;37.578;2023-03-04T03:09:27;97933.50;;;14.65;26.58
42691;BME280;28306;55.744;37.578;2023-03-04T03:11:54;97941.75;;;14.75;26.44
42691;BME280;28306;55.744;37.578;2023-03-04T03:14:20;97935.44;;;14.82;26.50
42691;BME280;28306;55.744;37.578;2023-03-04T03:16:45;97937.16;;;14.88;26.45
42691;BME280;28306;55.744;37.578;2023-03-04T03:19:11;97930.13;;;14.99;26.30
42691;BME280;28306;55.744;37.578;2023-03-04T03:21:37;97935.16;;;15.12;26.19
42691;BME280;28306;55.744;37.578;2023-03-04T03:24:02;97929.06;;;15.17;26.07
42691;BME280;28306;55.744;37.578;2023-03-04T03:26:28;97930.69;;;15.18;26.02
42691;BME280;28306;55.744;37.578;2023-03-04T03:28:54;97927.53;;;15.21;25.88
42691;BME280;28306;55.744;37.578;2023-03-04T03:31:20;97916.56;;;15.22;25.99
42691;BME280;28306;55.744;37.578;2023-03-04T03:33:45;97918.53;;;15.27;26.29
42691;BME280;28306;55.744;37.578;2023-03-04T03:36:11;97909.19;;;15.29;26.01
42691;BME280;28306;55.744;37.578;2023-03-04T03:38:37;97908.63;;;15.27;25.71
42691;BME280;28306;55.744;37.578;2023-03-04T03:41:02;97914.63;;;15.35;25.84
42691;BME280;28306;55.744;37.578;2023-03-04T03:43:28;97907.94;;;15.37;25.60
42691;BME280;28306;55.744;37.578;2023-03-04T03:45:53;97903.66;;;15.36;25.66
42691;BME280;28306;55.744;37.578;2023-03-04T03:48:18;97904.72;;;15.35;25.63
42691;BME280;28306;55.744;37.578;2023-03-04T03:50:44;97901.47;;;15.33;25.76
42691;BME280;28306;55.744;37.578;2023-03-04T03:53:10;97903.75;;;15.24;25.78
42691;BME280;28306;55.744;37.578;2023-03-04T03:55:35;97899.66;;;15.22;25.53
42691;BME280;28306;55.744;37.578;2023-03-04T03:58:01;97894.47;;;15.15;25.68
42691;BME280;28306;55.744;37.578;2023-03-04T04:00:26;97897.47;;;15.19;25.75
42691;BME280;28306;55.744;37.578;2023-03-04T04:02:53;97888.09;;;15.16;25.73
42691;BME280;28306;55.744;37.578;2023-03-04T04:05:19;97879.63;;;15.24;25.69
42691;BME280;28306;55.744;37.578;2023-03-04T04:07:44;97874.69;;;15.33;25.37
42691;BME280;28306;55.744;37.578;2023-03-04T04:10:10;97869.63;;;15.37;25.52
42691;BME280;28306;55.744;37.578;2023-03-04T04:12:35;97866.78;;;15.26;25.92
42691;BME280;28306;55.744;37.578;2023-03-04T04:15:01;97861.53;;;15.14;25.64
42691;BME280;28306;55.744;37.578;2023-03-04T04:17:26;97861.47;;;14.92;26.19
42691;BME280;28306;55.744;37.578;2023-03-04T04:19:52;97863.41;;;14.80;26.42
42691;BME280;28306;55.744;37.578;2023-03-04T04:22:18;97859.16;;;14.67;26.71
42691;BME280;28306;55.744;37.578;2023-03-04T04:24:45;97849.19;;;14.51;26.73
42691;BME280;28306;55.744;37.578;2023-03-04T04:27:10;97844.66;;;14.51;27.04
42691;BME280;28306;55.744;37.578;2023-03-04T04:29:36;97840.78;;;14.59;26.91
42691;BME280;28306;55.744;37.578;2023-03-04T04:32:01;97843.09;;;14.67;26.42
42691;BME280;28306;55.744;37.578;2023-03-04T04:34:27;97842.28;;;14.67;26.75
42691;BME280;28306;55.744;37.578;2023-03-04T04:36:53;97844.47;;;14.70;26.67
42691;BME280;28306;55.744;37.578;2023-03-04T04:39:18;97850.91;;;14.69;26.80
42691;BME280;28306;55.744;37.578;2023-03-04T04:41:44;97849.94;;;14.75;26.44
42691;BME280;28306;55.744;37.578;2023-03-04T04:44:10;97853.72;;;14.79;26.68
42691;BME280;28306;55.744;37.578;2023-03-04T04:46:36;97849.13;;;14.91;26.21
42691;BME280;28306;55.744;37.578;2023-03-04T04:49:02;97840.84;;;15.10;25.94
42691;BME280;28306;55.744;37.578;2023-03-04T04:51:28;97834.03;;;15.19;25.80
42691;BME280;28306;55.744;37.578;2023-03-04T04:53:53;97831.41;;;15.24;25.80
42691;BME280;28306;55.744;37.578;2023-03-04T04:56:20;97835.38;;;15.22;26.04
42691;BME280;28306;55.744;37.578;2023-03-04T04:58:46;97838.00;;;15.17;25.70
42691;BME280;28306;55.744;37.578;2023-03-04T05:01:12;97833.69;;;15.16;25.76
42691;BME280;28306;55.744;37.578;2023-03-04T05:03:38;97836.63;;;15.14;26.04
42691;BME280;28306;55.744;37.578;2023-03-04T05:06:04;97834.03;;;15.19;25.63
42691;BME280;28306;55.744;37.578;2023-03-04T05:08:30;97838.47;;;15.13;25.66
42691;BME280;28306;55.744;37.578;2023-03-04T05:10:56;97826.78;;;15.03;26.15
42691;BME280;28306;55.744;37.578;2023-03-04T05:13:21;97822.41;;;14.96;26.05
42691;BME280;28306;55.744;37.578;2023-03-04T05:15:49;97824.34;;;15.01;26.05
42691;BME280;28306;55.744;37.578;2023-03-04T05:18:15;97825.34;;;15.12;25.93
42691;BME280;28306;55.744;37.578;2023-03-04T05:20:40;97820.41;;;15.04;26.05
42691;BME280;28306;55.744;37.578;2023-03-04T05:23:05;97818.19;;;15.01;26.21
42691;BME280;28306;55.744;37.578;2023-03-04T05:25:31;97819.59;;;15.03;26.10
42691;BME280;28306;55.744;37.578;2023-03-04T05:27:56;97814.88;;;15.10;25.99
42691;BME280;28306;55.744;37.578;2023-03-04T05:30:22;97812.78;;;15.12;26.27
42691;BME280;28306;55.744;37.578;2023-03-04T05:32:47;97821.06;;;15.11;25.96
42691;BME280;28306;55.744;37.578;2023-03-04T05:35:13;97811.44;;;15.15;25.69
42691;BME280;28306;55.744;37.578;2023-03-04T05:37:38;97809.75;;;15.09;26.13
42691;BME280;28306;55.744;37.578;2023-03-04T05:40:04;97806.94;;;14.99;26.25
42691;BME280;28306;55.744;37.578;2023-03-04T05:42:30;97804.88;;;14.89;26.39
42691;BME280;28306;55.744;37.578;2023-03-04T05:44:55;97811.06;;;14.89;26.47
42691;BME280;28306;55.744;37.578;2023-03-04T05:47:21;97812.69;;;14.90;26.54
42691;BME280;28306;55.744;37.578;2023-03-04T05:49:46;97801.47;;;14.93;26.31
42691;BME280;28306;55.744;37.578;2023-03-04T05:52:11;97804.09;;;15.05;26.43
42691;BME280;28306;55.744;37.578;2023-03-04T05:54:37;97805.28;;;15.14;26.06
42691;BME280;28306;55.744;37.578;2023-03-04T05:57:02;97798.63;;;15.17;25.99
42691;BME280;28306;55.744;37.578;2023-03-04T05:59:28;97797.13;;;15.26;25.80
42691;BME280;28306;55.744;37.578;2023-03-04T06:01:53;97796.09;;;15.27;26.01
42691;BME280;28306;55.744;37.578;2023-03-04T06:04:19;97790.53;;;15.34;25.75
42691;BME280;28306;55.744;37.578;2023-03-04T06:06:44;97783.59;;;15.33;25.91
42691;BME280;28306;55.744;37.578;2023-03-04T06:09:13;97785.44;;;15.32;25.84
42691;BME280;28306;55.744;37.578;2023-03-04T06:11:39;97787.63;;;15.36;25.87
42691;BME280;28306;55.744;37.578;2023-03-04T06:14:04;97782.25;;;15.36;25.79
42691;BME280;28306;55.744;37.578;2023-03-04T06:16:30;97791.19;;;15.41;25.64
42691;BME280;28306;55.744;37.578;2023-03-04T06:18:56;97778.94;;;15.45;25.53
42691;BME280;28306;55.744;37.578;2023-03-04T06:21:21;97776.63;;;15.54;25.41
42691;BME280;28306;55.744;37.578;2023-03-04T06:23:46;97775.63;;;15.60;25.64
42691;BME280;28306;55.744;37.578;2023-03-04T06:26:12;97770.81;;;15.62;25.61
42691;BME280;28306;55.744;37.578;2023-03-04T06:28:40;97767.38;;;15.67;25.41
42691;BME280;28306;55.744;37.578;2023-03-04T06:31:05;97766.53;;;15.61;25.56
42691;BME280;28306;55.744;37.578;2023-03-04T06:33:31;97764.69;;;15.67;25.31
42691;BME280;28306;55.744;37.578;2023-03-04T06:35:56;97758.69;;;15.77;25.21
42691;BME280;28306;55.744;37.578;2023-03-04T06:38:22;97764.38;;;15.80;25.18
42691;BME280;28306;55.744;37.578;2023-03-04T06:40:48;97759.50;;;15.77;25.29
42691;BME280;28306;55.744;37.578;2023-03-04T06:43:13;97768.50;;;15.71;25.34
42691;BME280;28306;55.744;37.578;2023-03-04T06:45:39;97760.78;;;15.75;25.14
42691;BME280;28306;55.744;37.578;2023-03-04T06:48:04;97757.66;;;15.83;25.08
42691;BME280;28306;55.744;37.578;2023-03-04T06:50:30;97740.56;;;15.89;25.14
42691;BME280;28306;55.744;37.578;2023-03-04T06:52:56;97741.91;;;15.87;24.98
42691;BME280;28306;55.744;37.578;2023-03-04T06:55:21;97738.72;;;15.90;24.89
42691;BME280;28306;55.744;37.578;2023-03-04T06:57:47;97736.03;;;15.90;25.10
42691;BME280;28306;55.744;37.578;2023-03-04T07:00:12;97728.56;;;15.92;25.08
42691;BME280;28306;55.744;37.578;2023-03-04T07:02:38;97729.59;;;15.91;25.15
42691;BME280;28306;55.744;37.578;2023-03-04T07:05:04;97727.84;;;16.01;25.08
42691;BME280;28306;55.744;37.578;2023-03-04T07:07:29;97726.06;;;16.12;24.73
42691;BME280;28306;55.744;37.578;2023-03-04T07:09:54;97720.19;;;16.15;24.79
42691;BME280;28306;55.744;37.578;2023-03-04T07:12:20;97714.53;;;16.12;24.86
42691;BME280;28306;55.744;37.578;2023-03-04T07:14:45;97720.91;;;16.06;24.88
42691;BME280;28306;55.744;37.578;2023-03-04T07:17:11;97709.13;;;16.07;25.02
42691;BME280;28306;55.744;37.578;2023-03-04T07:19:36;97706.19;;;16.08;24.79
42691;BME280;28306;55.744;37.578;2023-03-04T07:22:02;97706.22;;;16.13;24.84
42691;BME280;28306;55.744;37.578;2023-03-04T07:24:27;97697.69;;;16.16;24.66
42691;BME280;28306;55.744;37.578;2023-03-04T07:26:53;97694.69;;;16.13;24.83
42691;BME280;28306;55.744;37.578;2023-03-04T07:29:18;97695.75;;;16.12;25.21
42691;BME280;28306;55.744;37.578;2023-03-04T07:31:44;97685.31;;;16.15;25.02
42691;BME280;28306;55.744;37.578;2023-03-04T07:34:11;97686.81;;;16.01;25.12
42691;BME280;28306;55.744;37.578;2023-03-04T07:36:36;97678.59;;;15.85;25.49
42691;BME280;28306;55.744;37.578;2023-03-04T07:39:03;97685.84;;;15.85;26.10
42691;BME280;28306;55.744;37.578;2023-03-04T07:41:28;97679.47;;;15.91;25.70
42691;BME280;28306;55.744;37.578;2023-03-04T07:43:57;97679.31;;;16.03;25.71
42691;BME280;28306;55.744;37.578;2023-03-04T07:46:23;97685.53;;;16.09;25.43
42691;BME280;28306;55.744;37.578;2023-03-04T07:48:49;97675.59;;;16.09;25.47
42691;BME280;28306;55.744;37.578;2023-03-04T07:51:15;97665.19;;;16.13;25.92
42691;BME280;28306;55.744;37.578;2023-03-04T07:53:42;97665.94;;;16.40;25.05
42691;BME280;28306;55.744;37.578;2023-03-04T07:56:10;97662.69;;;16.38;25.25
42691;BME280;28306;55.744;37.578;2023-03-04T07:58:36;97666.13;;;16.29;25.00
42691;BME280;28306;55.744;37.578;2023-03-04T08:01:07;97659.91;;;16.23;25.37
42691;BME280;28306;55.744;37.578;2023-03-04T08:03:32;97666.88;;;16.24;25.26
42691;BME280;28306;55.744;37.578;2023-03-04T08:05:58;97670.91;;;16.27;25.20
42691;BME280;28306;55.744;37.578;2023-03-04T08:08:23;97659.38;;;16.26;25.37
42691;BME280;28306;55.744;37.578;2023-03-04T08:10:49;97657.75;;;16.25;25.34
42691;BME280;28306;55.744;37.578;2023-03-04T08:13:14;97654.31;;;16.30;25.13
42691;BME280;28306;55.744;37.578;2023-03-04T08:15:40;97655.66;;;16.27;25.32
42691;BME280;28306;55.744;37.578;2023-03-04T08:18:06;97659.63;;;16.25;25.16
42691;BME280;28306;55.744;37.578;2023-03-04T08:20:31;97645.16;;;16.26;25.37
42691;BME280;28306;55.744;37.578;2023-03-04T08:22:57;97643.25;;;16.21;25.43
42691;BME280;28306;55.744;37.578;2023-03-04T08:25:22;97634.09;;;16.17;25.26
42691;BME280;28306;55.744;37.578;2023-03-04T08:27:48;97632.03;;;16.29;25.10
42691;BME280;28306;55.744;37.578;2023-03-04T08:30:13;97634.84;;;16.45;25.03
42691;BME280;28306;55.744;37.578;2023-03-04T08:32:39;97628.47;;;16.61;24.93
42691;BME280;28306;55.744;37.578;2023-03-04T08:35:05;97630.09;;;16.62;24.77
42691;BME280;28306;55.744;37.578;2023-03-04T08:37:30;97628.22;;;16.63;24.69
42691;BME280;28306;55.744;37.578;2023-03-04T08:39:56;97627.75;;;16.71;24.69
42691;BME280;28306;55.744;37.578;2023-03-04T08:42:21;97623.63;;;16.58;24.69
42691;BME280;28306;55.744;37.578;2023-03-04T08:44:48;97623.06;;;16.51;24.90
42691;BME280;28306;55.744;37.578;2023-03-04T08:47:13;97620.34;;;16.46;24.68
42691;BME280;28306;55.744;37.578;2023-03-04T08:49:39;97616.22;;;16.33;25.20
42691;BME280;28306;55.744;37.578;2023-03-04T08:52:04;97616.81;;;16.40;25.19
42691;BME280;28306;55.744;37.578;2023-03-04T08:54:30;97612.63;;;16.54;24.72
42691;BME280;28306;55.744;37.578;2023-03-04T08:56:55;97606.22;;;16.61;24.66
42691;BME280;28306;55.744;37.578;2023-03-04T08:59:21;97604.03;;;16.57;24.88
42691;BME280;28306;55.744;37.578;2023-03-04T09:01:46;97605.34;;;16.50;24.84
42691;BME280;28306;55.744;37.578;2023-03-04T09:04:12;97595.66;;;16.49;24.79
42691;BME280;28306;55.744;37.578;2023-03-04T09:06:37;97594.09;;;16.53;24.76
42691;BME280;28306;55.744;37.578;2023-03-04T09:09:03;97589.00;;;16.56;24.66
42691;BME280;28306;55.744;37.578;2023-03-04T09:11:28;97585.78;;;16.54;24.97
42691;BME280;28306;55.744;37.578;2023-03-04T09:13:54;97577.53;;;16.66;24.94
42691;BME280;28306;55.744;37.578;2023-03-04T09:16:19;97574.34;;;16.74;24.81
42691;BME280;28306;55.744;37.578;2023-03-04T09:18:45;97573.81;;;16.78;24.75
42691;BME280;28306;55.744;37.578;2023-03-04T09:21:10;97567.97;;;16.91;24.52
42691;BME280;28306;55.744;37.578;2023-03-04T09:23:36;97564.22;;;16.92;24.53
42691;BME280;28306;55.744;37.578;2023-03-04T09:26:11;97554.53;;;16.91;24.36
42691;BME280;28306;55.744;37.578;2023-03-04T09:28:37;97547.03;;;16.93;24.25
42691;BME280;28306;55.744;37.578;2023-03-04T09:31:09;97547.75;;;16.78;24.59
42691;BME280;28306;55.744;37.578;2023-03-04T09:33:34;97547.75;;;16.73;24.67
42691;BME280;28306;55.744;37.578;2023-03-04T09:36:00;97544.22;;;16.67;24.78
42691;BME280;28306;55.744;37.578;2023-03-04T09:38:25;97536.69;;;16.64;24.61
42691;BME280;28306;55.744;37.578;2023-03-04T09:40:51;97532.41;;;16.68;24.57
42691;BME280;28306;55.744;37.578;2023-03-04T09:43:21;97515.53;;;16.73;24.46
42691;BME280;28306;55.744;37.578;2023-03-04T09:45:50;97512.00;;;16.67;24.45
42691;BME280;28306;55.744;37.578;2023-03-04T09:48:20;97504.47;;;16.59;24.70
42691;BME280;28306;55.744;37.578;2023-03-04T09:54:04;97504.78;;;16.68;24.48
42691;BME280;28306;55.744;37.578;2023-03-04T09:56:19;97497.00;;;16.82;24.32
42691;BME280;28306;55.744;37.578;2023-03-04T10:01:41;97489.78;;;16.82;24.38
42691;BME280;28306;55.744;37.578;2023-03-04T10:04:09;97481.97;;;16.75;24.41
42691;BME280;28306;55.744;37.578;2023-03-04T10:06:38;97470.13;;;16.76;24.29
42691;BME280;28306;55.744;37.578;2023-03-04T10:09:15;97462.09;;;16.82;24.33
42691;BME280;28306;55.744;37.578;2023-03-04T10:14:22;97449.28;;;16.99;23.75
42691;BME280;28306;55.744;37.578;2023-03-04T10:16:58;97445.50;;;16.95;23.63
42691;BME280;28306;55.744;37.578;2023-03-04T10:19:29;97444.16;;;16.87;23.88
42691;BME280;28306;55.744;37.578;2023-03-04T10:22:10;97434.44;;;16.81;23.76
42691;BME280;28306;55.744;37.578;2023-03-04T10:24:40;97432.81;;;16.75;24.21
42691;BME280;28306;55.744;37.578;2023-03-04T10:27:06;97440.59;;;16.76;24.22
42691;BME280;28306;55.744;37.578;2023-03-04T10:29:36;97431.75;;;16.81;24.02
42691;BME280;28306;55.744;37.578;2023-03-04T10:32:01;97434.44;;;16.81;24.18
42691;BME280;28306;55.744;37.578;2023-03-04T10:34:27;97425.63;;;16.86;24.08
42691;BME280;28306;55.744;37.578;2023-03-04T10:36:54;97422.91;;;16.81;23.84
42691;BME280;28306;55.744;37.578;2023-03-04T10:39:21;97408.94;;;16.84;23.98
42691;BME280;28306;55.744;37.578;2023-03-04T10:41:59;97414.34;;;16.94;23.91
42691;BME280;28306;55.744;37.578;2023-03-04T10:44:25;97405.78;;;17.07;23.66
42691;BME280;28306;55.744;37.578;2023-03-04T10:46:52;97400.69;;;17.21;23.74
42691;BME280;28306;55.744;37.578;2023-03-04T10:49:19;97395.00;;;17.33;23.70
42691;BME280;28306;55.744;37.578;2023-03-04T10:51:48;97385.34;;;17.32;23.82
42691;BME280;28306;55.744;37.578;2023-03-04T10:56:52;97385.63;;;17.15;23.90
42691;BME280;28306;55.744;37.578;2023-03-04T10:59:24;97396.34;;;17.05;24.13
42691;BME280;28306;55.744;37.578;2023-03-04T11:01:53;97376.75;;;17.04;24.26
42691;BME280;28306;55.744;37.578;2023-03-04T11:04:21;97385.91;;;17.08;24.27
42691;BME280;28306;55.744;37.578;2023-03-04T11:06:47;97367.63;;;17.00;24.20
42691;BME280;28306;55.744;37.578;2023-03-04T11:09:26;97370.84;;;16.92;24.62
42691;BME280;28306;55.744;37.578;2023-03-04T11:11:52;97367.31;;;16.71;25.06
42691;BME280;28306;55.744;37.578;2023-03-04T11:14:39;97366.75;;;16.64;24.95
42691;BME280;28306;55.744;37.578;2023-03-04T11:17:20;97359.25;;;16.71;24.88
42691;BME280;28306;55.744;37.578;2023-03-04T11:19:47;97356.84;;;16.80;25.25
42691;BME280;28306;55.744;37.578;2023-03-04T11:22:16;97355.25;;;16.94;24.58
42691;BME280;28306;55.744;37.578;2023-03-04T11:24:42;97354.72;;;16.97;24.96
42691;BME280;28306;55.744;37.578;2023-03-04T11:27:17;97351.25;;;16.97;25.10
42691;BME280;28306;55.744;37.578;2023-03-04T11:32:12;97333.78;;;16.99;25.03
42691;BME280;28306;55.744;37.578;2023-03-04T11:37:07;97334.03;;;17.03;24.99
42691;BME280;28306;55.744;37.578;2023-03-04T11:39:37;97320.09;;;17.01;24.85
42691;BME280;28306;55.744;37.578;2023-03-04T11:42:22;97318.47;;;17.00;25.29
42691;BME280;28306;55.744;37.578;2023-03-04T11:44:49;97320.34;;;16.94;25.65
42691;BME280;28306;55.744;37.578;2023-03-04T11:47:22;97316.59;;;16.90;25.45
42691;BME280;28306;55.744;37.578;2023-03-04T12:00:02;97304.72;;;16.55;26.34
42691;BME280;28306;55.744;37.578;2023-03-04T12:08:02;97286.22;;;16.74;26.41
42691;BME280;28306;55.744;37.578;2023-03-04T12:15:54;97277.91;;;16.60;26.55
42691;BME280;28306;55.744;37.578;2023-03-04T12:24:16;97260.72;;;16.46;26.95
42691;BME280;28306;55.744;37.578;2023-03-04T12:31:44;97251.56;;;16.21;27.25
42691;BME280;28306;55.744;37.578;2023-03-04T12:44:19;97232.25;;;16.29;26.90
42691;BME280;28306;55.744;37.578;2023-03-04T12:56:50;97218.84;;;16.50;27.16
42691;BME280;28306;55.744;37.578;2023-03-04T12:59:18;97211.84;;;16.49;27.24
42691;BME280;28306;55.744;37.578;2023-03-04T13:06:57;97198.69;;;16.21;27.62
42691;BME280;28306;55.744;37.578;2023-03-04T13:09:37;97195.75;;;16.28;27.17
42691;BME280;28306;55.744;37.578;2023-03-04T13:15:13;97189.84;;;16.11;27.90
42691;BME280;28306;55.744;37.578;2023-03-04T13:20:17;97168.41;;;16.26;27.35
42691;BME280;28306;55.744;37.578;2023-03-04T13:22:48;97180.47;;;16.34;27.71
42691;BME280;28306;55.744;37.578;2023-03-04T13:25:32;97169.75;;;16.29;27.37
42691;BME280;28306;55.744;37.578;2023-03-04T13:32:55;97160.06;;;16.33;27.58
42691;BME280;28306;55.744;37.578;2023-03-04T13:38:19;97153.38;;;16.30;27.37
42691;BME280;28306;55.744;37.578;2023-03-04T13:41:05;97145.06;;;16.21;27.55
42691;BME280;28306;55.744;37.578;2023-03-04T13:43:37;97142.09;;;16.28;27.53
42691;BME280;28306;55.744;37.578;2023-03-04T13:51:48;97129.22;;;16.20;27.70
42691;BME280;28306;55.744;37.578;2023-03-04T13:54:14;97121.72;;;16.12;27.93
42691;BME280;28306;55.744;37.578;2023-03-04T13:56:41;97119.56;;;16.09;27.98
42691;BME280;28306;55.744;37.578;2023-03-04T14:01:36;97114.47;;;15.92;28.03
42691;BME280;28306;55.744;37.578;2023-03-04T14:04:16;97100.78;;;15.98;27.88
42691;BME280;28306;55.744;37.578;2023-03-04T14:06:42;97103.22;;;16.10;27.63
42691;BME280;28306;55.744;37.578;2023-03-04T14:09:11;97095.16;;;16.15;27.70
42691;BME280;28306;55.744;37.578;2023-03-04T14:11:38;97090.88;;;16.25;27.33
42691;BME280;28306;55.744;37.578;2023-03-04T14:14:09;97088.72;;;16.32;27.63
42691;BME280;28306;55.744;37.578;2023-03-04T14:16:39;97089.00;;;16.30;27.64
42691;BME280;28306;55.744;37.578;2023-03-04T14:19:14;97085.75;;;16.28;27.72
42691;BME280;28306;55.744;37.578;2023-03-04T14:21:43;97083.06;;;16.28;27.49
42691;BME280;28306;55.744;37.578;2023-03-04T14:24:15;97081.19;;;16.24;27.91
42691;BME280;28306;55.744;37.578;2023-03-04T14:26:41;97086.28;;;16.35;27.95